Graz, Austria
Current Conditions -  °F | °C
As of 10:20 PM on Saturday 25 Oct 2014 (Local Time) from LOWG Reporting Station
Broken Clouds Broken Clouds  
Wind Chill: 45°   Ceiling: 1400
Heat Index: 45°   Visibility: 6mi
Dew Point: 41°   Wind: 2mph
Humidity: 87%   Direction: 160°SSE
Pressure: 30.27"   Gusts: NA
Location:  47.08°N, 15.42°E
Report Text: LOWG 252020Z 16002KT 9999 FEW010 BKN014 07/05 Q1025 BECMG BKN009
Loading
Personal Weather Stations






























Interactive Weather Map
Tropical Storm Tracking
New forecast layout! Learn more

10-Day Weather Forecast

Advertisements
Track Severe Weather on mobile